createdAt,value
2022-12-28T00:01:49.057Z,8.06
2022-12-28T00:04:16.106Z,8.11
2022-12-28T00:06:43.136Z,8.19
2022-12-28T00:09:11.893Z,8.32
2022-12-28T00:11:38.805Z,8.51
2022-12-28T00:14:24.537Z,8.36
2022-12-28T00:16:51.527Z,8.28
2022-12-28T00:19:18.476Z,8.38
2022-12-28T00:21:46.184Z,8.42
2022-12-28T00:24:24.527Z,8.43
2022-12-28T00:26:52.315Z,8.45
2022-12-28T00:29:20.220Z,8.15
2022-12-28T00:31:47.263Z,8.36
2022-12-28T00:34:14.847Z,8.43
2022-12-28T00:37:10.804Z,8.48
2022-12-28T00:39:29.615Z,8.08
2022-12-28T00:41:56.515Z,8.15
2022-12-28T00:44:23.515Z,8.07
2022-12-28T00:46:50.647Z,8.16
2022-12-28T00:49:18.509Z,8.16
2022-12-28T00:51:45.518Z,8.04
2022-12-28T00:54:12.651Z,7.97
2022-12-28T00:56:43.083Z,7.95
2022-12-28T00:59:10.482Z,8.01
2022-12-28T01:01:37.623Z,7.95
2022-12-28T01:04:05.237Z,7.81
2022-12-28T01:06:32.083Z,7.85
2022-12-28T01:08:59.931Z,7.94
2022-12-28T01:11:29.545Z,7.93
2022-12-28T01:13:59.461Z,8.02
2022-12-28T01:16:29.459Z,8.02
2022-12-28T01:18:58.673Z,7.91
2022-12-28T01:21:28.197Z,7.79
2022-12-28T01:23:58.219Z,7.83
2022-12-28T01:26:26.599Z,7.80
2022-12-28T01:28:53.830Z,7.74
2022-12-28T01:31:21.993Z,7.83
2022-12-28T01:33:51.158Z,7.60
2022-12-28T01:36:19.350Z,7.89
2022-12-28T01:38:47.365Z,7.91
2022-12-28T01:41:17.261Z,8.00
2022-12-28T01:44:07.553Z,7.92
2022-12-28T01:46:45.760Z,7.97
2022-12-28T01:49:27.496Z,7.81
2022-12-28T01:52:00.686Z,7.78
2022-12-28T01:54:34.224Z,7.73
2022-12-28T01:57:03.426Z,7.51
2022-12-28T01:59:35.919Z,7.52
2022-12-28T02:02:03.529Z,7.62
2022-12-28T02:04:30.924Z,7.69
2022-12-28T02:06:58.082Z,7.59
2022-12-28T02:09:32.378Z,7.36
2022-12-28T02:12:00.804Z,7.46
2022-12-28T02:14:28.873Z,7.39
2022-12-28T02:16:56.157Z,7.41
2022-12-28T02:19:41.191Z,7.34
2022-12-28T02:22:33.233Z,7.44
2022-12-28T02:25:14.149Z,7.56
2022-12-28T02:27:50.143Z,7.60
2022-12-28T02:30:17.735Z,7.51
2022-12-28T02:32:59.932Z,7.36
2022-12-28T02:35:32.991Z,7.34
2022-12-28T02:38:07.755Z,7.35
2022-12-28T02:40:53.688Z,7.42
2022-12-28T02:43:23.296Z,7.14
2022-12-28T02:46:08.740Z,7.14
2022-12-28T02:49:01.687Z,7.11
2022-12-28T02:52:02.867Z,7.19
2022-12-28T02:55:22.661Z,7.11
2022-12-28T02:58:14.659Z,7.21
2022-12-28T03:00:53.550Z,7.29
2022-12-28T03:03:32.340Z,6.77
2022-12-28T03:06:44.446Z,7.29
2022-12-28T03:09:38.527Z,7.26
2022-12-28T03:12:05.795Z,7.43
2022-12-28T03:14:40.816Z,7.36
2022-12-28T03:17:28.488Z,7.25
2022-12-28T03:20:20.724Z,7.46
2022-12-28T03:23:08.241Z,7.54
2022-12-28T03:25:59.075Z,7.61
2022-12-28T03:28:53.834Z,7.74
2022-12-28T03:31:25.249Z,7.80
2022-12-28T03:34:06.969Z,7.78
2022-12-28T03:36:48.749Z,7.78
2022-12-28T03:39:52.057Z,7.79
2022-12-28T03:42:39.044Z,7.48
2022-12-28T03:45:46.714Z,7.31
2022-12-28T03:48:13.360Z,6.99
2022-12-28T03:50:44.411Z,6.96
2022-12-28T03:53:17.087Z,6.99
2022-12-28T03:55:45.515Z,7.02
2022-12-28T03:58:14.614Z,6.80
2022-12-28T04:00:41.972Z,7.00
2022-12-28T04:03:08.997Z,7.10
2022-12-28T04:05:36.165Z,7.25
2022-12-28T04:08:03.108Z,7.19
2022-12-28T04:10:30.158Z,6.84
2022-12-28T04:12:58.296Z,7.01
2022-12-28T04:15:25.341Z,7.04
2022-12-28T04:17:52.692Z,6.92
2022-12-28T04:20:19.676Z,7.09
2022-12-28T04:22:46.716Z,7.17
2022-12-28T04:25:14.367Z,6.98
2022-12-28T04:27:41.294Z,6.87
2022-12-28T04:30:18.870Z,6.83
2022-12-28T04:32:46.241Z,6.76
2022-12-28T04:35:14.118Z,6.68
2022-12-28T04:37:48.846Z,6.80
2022-12-28T04:40:15.882Z,7.00
2022-12-28T04:42:42.859Z,6.89
2022-12-28T04:45:10.186Z,6.96
2022-12-28T04:47:37.035Z,6.98
2022-12-28T04:50:04.036Z,7.19
2022-12-28T04:52:30.970Z,7.07
2022-12-28T04:54:58.031Z,7.10
2022-12-28T04:57:24.935Z,6.97
2022-12-28T04:59:51.941Z,7.04
2022-12-28T05:02:18.917Z,7.21
2022-12-28T05:04:50.333Z,7.38
2022-12-28T05:07:17.215Z,7.11
2022-12-28T05:09:44.078Z,7.48
2022-12-28T05:12:11.390Z,7.09
2022-12-28T05:14:38.262Z,7.57
2022-12-28T05:17:05.552Z,7.59
2022-12-28T05:19:32.503Z,7.67
2022-12-28T05:21:59.450Z,7.69
2022-12-28T05:24:26.539Z,7.74
2022-12-28T05:26:53.599Z,7.60
2022-12-28T05:29:20.579Z,7.65
2022-12-28T05:31:47.588Z,7.73
2022-12-28T05:34:14.591Z,7.58
2022-12-28T05:36:43.845Z,7.42
2022-12-28T05:39:10.793Z,7.30
2022-12-28T05:41:37.620Z,7.16
2022-12-28T05:44:04.821Z,7.33
2022-12-28T05:46:34.133Z,7.34
2022-12-28T05:49:01.201Z,7.44
2022-12-28T05:51:31.209Z,7.17
2022-12-28T05:54:01.056Z,7.22
2022-12-28T05:56:29.482Z,7.19
2022-12-28T05:59:01.852Z,7.38
2022-12-28T06:01:31.563Z,7.49
2022-12-28T06:04:04.219Z,7.55
2022-12-28T06:06:33.241Z,7.48
2022-12-28T06:09:00.587Z,7.58
2022-12-28T06:11:29.433Z,7.63
2022-12-28T06:13:57.788Z,7.41
2022-12-28T06:16:30.627Z,7.60
2022-12-28T06:18:58.100Z,7.55
2022-12-28T06:21:30.657Z,7.49
2022-12-28T06:23:59.190Z,7.26
2022-12-28T06:26:28.374Z,7.24
2022-12-28T06:28:55.420Z,7.45
2022-12-28T06:31:25.431Z,7.50
2022-12-28T06:33:55.026Z,7.33
2022-12-28T06:36:23.205Z,7.56
2022-12-28T06:38:53.637Z,7.49
2022-12-28T06:41:21.937Z,7.32
2022-12-28T06:43:50.529Z,7.10
2022-12-28T06:46:19.729Z,7.34
2022-12-28T06:48:46.952Z,7.38
2022-12-28T06:51:19.220Z,7.27
2022-12-28T06:53:47.511Z,7.28
2022-12-28T06:56:18.597Z,7.32
2022-12-28T06:58:47.082Z,7.24
2022-12-28T07:01:18.450Z,7.27
2022-12-28T07:03:47.701Z,7.48
2022-12-28T07:06:16.961Z,7.45
2022-12-28T07:08:44.799Z,7.64
2022-12-28T07:11:15.487Z,7.62
2022-12-28T07:13:42.726Z,7.64
2022-12-28T07:18:55.662Z,7.64
2022-12-28T07:21:25.289Z,7.66
2022-12-28T07:23:53.911Z,7.40
2022-12-28T07:26:24.460Z,7.72
2022-12-28T07:28:54.395Z,7.88
2022-12-28T07:31:30.205Z,8.00
2022-12-28T07:33:59.914Z,7.84
2022-12-28T07:36:29.047Z,7.81
2022-12-28T07:38:56.482Z,7.91
2022-12-28T07:41:29.288Z,7.61
2022-12-28T07:43:58.646Z,7.63
2022-12-28T07:46:28.670Z,7.85
2022-12-28T07:48:57.204Z,7.96
2022-12-28T07:51:32.223Z,7.91
2022-12-28T07:54:00.128Z,7.86
2022-12-28T07:56:28.554Z,7.91
2022-12-28T07:59:00.641Z,7.89
2022-12-28T08:01:32.302Z,8.02
2022-12-28T08:04:06.489Z,7.88
2022-12-28T08:06:36.340Z,7.93
2022-12-28T08:09:05.694Z,8.11
2022-12-28T08:11:34.678Z,8.14
2022-12-28T08:14:02.812Z,8.07
2022-12-28T08:16:33.538Z,8.15
2022-12-28T08:19:01.013Z,8.20
2022-12-28T08:21:31.904Z,8.26
2022-12-28T08:23:59.476Z,8.28
2022-12-28T08:26:35.331Z,8.19
2022-12-28T08:29:06.270Z,7.94
2022-12-28T08:31:36.644Z,8.21
2022-12-28T08:34:06.105Z,8.36
2022-12-28T08:36:33.059Z,8.43
2022-12-28T08:39:01.179Z,8.32
2022-12-28T08:41:29.525Z,8.46
2022-12-28T08:43:56.777Z,8.29
2022-12-28T08:46:32.414Z,8.08
2022-12-28T08:49:00.764Z,7.79
2022-12-28T08:51:32.006Z,7.90
2022-12-28T08:54:01.037Z,7.99
2022-12-28T08:56:30.585Z,8.10
2022-12-28T08:58:58.490Z,8.15
2022-12-28T09:01:29.460Z,7.80
2022-12-28T09:03:58.952Z,7.84
2022-12-28T09:06:34.313Z,7.91
2022-12-28T09:09:06.134Z,8.07
2022-12-28T09:11:35.736Z,8.07
2022-12-28T09:14:05.310Z,8.04
2022-12-28T09:16:32.720Z,8.02
2022-12-28T09:19:01.602Z,8.01
2022-12-28T09:21:32.844Z,8.03
2022-12-28T09:24:00.160Z,8.07
2022-12-28T09:26:33.919Z,7.99
2022-12-28T09:29:04.137Z,8.02
2022-12-28T09:31:33.573Z,7.87
2022-12-28T09:36:47.798Z,8.17
2022-12-28T09:39:20.882Z,8.01
2022-12-28T09:42:21.629Z,8.18
2022-12-28T09:45:06.149Z,8.11
2022-12-28T09:47:42.280Z,8.19
2022-12-28T09:50:09.098Z,8.22
2022-12-28T09:53:16.030Z,8.23
2022-12-28T09:55:53.775Z,8.21
2022-12-28T09:58:22.059Z,8.22
2022-12-28T10:00:56.102Z,8.35
2022-12-28T10:03:36.694Z,8.47
2022-12-28T10:06:09.870Z,8.47
2022-12-28T10:08:42.819Z,8.56
2022-12-28T10:11:15.362Z,8.65
2022-12-28T10:13:57.628Z,8.71
2022-12-28T10:16:28.232Z,8.58
2022-12-28T10:18:55.639Z,8.77
2022-12-28T10:21:31.935Z,8.78
2022-12-28T10:26:47.936Z,8.70
2022-12-28T10:29:23.685Z,8.57
2022-12-28T10:32:04.105Z,8.85
2022-12-28T10:34:34.340Z,8.63
2022-12-28T10:37:16.824Z,9.00
2022-12-28T10:39:54.164Z,8.88
2022-12-28T10:42:25.038Z,8.98
2022-12-28T10:44:53.041Z,8.99
2022-12-28T10:47:44.449Z,9.02
2022-12-28T10:50:42.651Z,9.14
2022-12-28T10:53:16.883Z,9.00
2022-12-28T10:55:44.850Z,9.00
2022-12-28T10:58:29.974Z,9.15
2022-12-28T11:01:19.685Z,9.14
2022-12-28T11:03:46.591Z,9.10
2022-12-28T11:06:21.303Z,9.14
2022-12-28T11:09:20.350Z,9.01
2022-12-28T11:11:49.183Z,9.12
2022-12-28T11:14:30.902Z,9.14
2022-12-28T11:16:58.057Z,9.17
2022-12-28T11:19:26.042Z,9.26
2022-12-28T11:21:53.691Z,9.30
2022-12-28T11:24:27.159Z,8.25
2022-12-28T11:26:54.552Z,9.33
2022-12-28T11:29:21.532Z,9.36
2022-12-28T11:31:57.981Z,9.38
2022-12-28T11:34:27.976Z,9.44
2022-12-28T11:36:55.736Z,9.40
2022-12-28T11:39:25.663Z,9.47
2022-12-28T11:42:19.557Z,9.32
2022-12-28T11:44:41.192Z,9.41
2022-12-28T11:47:17.347Z,9.38
2022-12-28T11:49:46.657Z,9.36
2022-12-28T11:52:16.427Z,9.45
2022-12-28T11:54:52.581Z,9.39
2022-12-28T11:57:43.519Z,9.29
2022-12-28T12:00:21.844Z,9.30
2022-12-28T12:02:58.316Z,9.30
2022-12-28T12:05:36.683Z,9.37
2022-12-28T12:08:23.485Z,9.43
2022-12-28T12:11:19.169Z,9.40
2022-12-28T12:13:50.868Z,9.33
2022-12-28T12:16:20.876Z,9.38
2022-12-28T12:18:54.700Z,9.26
2022-12-28T12:21:33.269Z,9.27
2022-12-28T12:24:18.911Z,9.08
2022-12-28T12:26:51.425Z,9.37
2022-12-28T12:29:41.044Z,9.26
2022-12-28T12:32:45.094Z,9.10
2022-12-28T12:35:23.497Z,9.10
2022-12-28T12:38:20.624Z,8.73
2022-12-28T12:41:28.794Z,8.99
2022-12-28T12:44:14.307Z,8.92
2022-12-28T12:47:05.393Z,8.84
2022-12-28T12:49:57.860Z,8.92
2022-12-28T12:52:30.150Z,8.85
2022-12-28T12:55:09.343Z,9.07
2022-12-28T12:57:45.395Z,9.10
2022-12-28T13:00:17.896Z,9.14
2022-12-28T13:02:48.033Z,9.16
2022-12-28T13:05:19.902Z,9.13
2022-12-28T13:07:49.804Z,9.07
2022-12-28T13:10:32.014Z,9.12
2022-12-28T13:13:02.431Z,9.07
2022-12-28T13:15:30.554Z,8.98
2022-12-28T13:21:12.324Z,9.11
2022-12-28T13:23:45.111Z,9.13
2022-12-28T13:26:15.562Z,9.08
2022-12-28T13:29:08.306Z,9.04
2022-12-28T13:31:38.482Z,9.13
2022-12-28T13:34:16.566Z,9.19
2022-12-28T13:36:56.796Z,9.22
2022-12-28T13:39:35.437Z,9.21
2022-12-28T13:42:19.209Z,9.04
2022-12-28T13:44:51.028Z,9.04
2022-12-28T13:47:33.291Z,8.97
2022-12-28T13:50:02.309Z,8.94
2022-12-28T13:52:38.064Z,8.84
2022-12-28T13:55:17.721Z,8.89
2022-12-28T13:57:54.221Z,8.79
2022-12-28T14:00:25.084Z,8.86
2022-12-28T14:02:55.754Z,8.85
2022-12-28T14:05:26.711Z,8.71
2022-12-28T14:07:56.433Z,8.78
2022-12-28T14:10:24.350Z,8.73
2022-12-28T14:12:52.751Z,8.73
2022-12-28T14:15:20.825Z,8.70
2022-12-28T14:17:50.694Z,8.66
2022-12-28T14:20:18.522Z,8.78
2022-12-28T14:22:45.668Z,8.49
2022-12-28T14:25:17.483Z,8.76
2022-12-28T14:27:57.179Z,8.74
2022-12-28T14:30:33.028Z,8.65
2022-12-28T14:33:19.409Z,8.67
2022-12-28T14:35:54.119Z,8.58
2022-12-28T14:38:34.597Z,8.54
2022-12-28T14:41:04.229Z,8.60
2022-12-28T14:43:37.055Z,8.45
2022-12-28T14:46:30.255Z,8.58
2022-12-28T14:48:57.419Z,8.57
2022-12-28T14:51:32.810Z,8.41
2022-12-28T14:54:17.425Z,8.68
2022-12-28T14:56:53.492Z,8.61
2022-12-28T14:59:26.308Z,8.61
2022-12-28T15:01:53.830Z,8.53
2022-12-28T15:04:36.116Z,8.62
2022-12-28T15:07:09.187Z,8.60
2022-12-28T15:09:36.897Z,8.65
2022-12-28T15:12:23.163Z,8.70
2022-12-28T15:14:50.816Z,8.72
2022-12-28T15:17:18.541Z,8.71
2022-12-28T15:19:45.999Z,8.65
2022-12-28T15:22:13.484Z,8.62
2022-12-28T15:24:45.562Z,8.60
2022-12-28T15:27:12.750Z,8.55
2022-12-28T15:32:27.836Z,8.63
2022-12-28T15:34:55.006Z,8.55
2022-12-28T15:37:21.922Z,8.47
2022-12-28T15:39:49.395Z,8.51
2022-12-28T15:42:16.337Z,8.46
2022-12-28T15:44:43.195Z,8.47
2022-12-28T15:47:10.695Z,8.50
2022-12-28T15:49:37.708Z,8.44
2022-12-28T15:52:04.839Z,8.38
2022-12-28T15:54:31.788Z,8.23
2022-12-28T15:57:00.189Z,8.46
2022-12-28T15:59:28.879Z,8.42
2022-12-28T16:01:56.383Z,8.40
2022-12-28T16:04:23.467Z,8.49
2022-12-28T16:06:50.536Z,8.40
2022-12-28T16:09:17.520Z,8.37
2022-12-28T16:11:45.701Z,8.27
2022-12-28T16:14:16.436Z,8.46
2022-12-28T16:16:44.866Z,8.31
2022-12-28T16:19:13.863Z,8.40
2022-12-28T16:21:41.441Z,8.34
2022-12-28T16:24:09.405Z,8.39
2022-12-28T16:26:36.728Z,8.33
2022-12-28T16:29:03.701Z,8.31
2022-12-28T16:31:36.202Z,8.26
2022-12-28T16:34:21.270Z,8.09
2022-12-28T16:36:48.433Z,8.11
2022-12-28T16:39:17.778Z,8.09
2022-12-28T16:41:45.310Z,8.09
2022-12-28T16:44:18.875Z,7.85
2022-12-28T16:46:46.412Z,7.97
2022-12-28T16:49:13.649Z,7.95
2022-12-28T16:51:43.930Z,7.93
2022-12-28T16:54:22.226Z,7.83
2022-12-28T16:56:50.929Z,7.81
2022-12-28T16:59:26.545Z,7.95
2022-12-28T17:01:56.008Z,8.03
2022-12-28T17:04:23.413Z,7.66
2022-12-28T17:06:51.843Z,7.94
2022-12-28T17:09:19.604Z,8.08
2022-12-28T17:11:48.140Z,8.01
2022-12-28T17:14:17.507Z,8.08
2022-12-28T17:16:51.486Z,8.03
2022-12-28T17:19:18.542Z,8.08
2022-12-28T17:21:45.508Z,8.11
2022-12-28T17:24:12.999Z,8.05
2022-12-28T17:26:40.142Z,7.64
2022-12-28T17:29:07.214Z,7.92
2022-12-28T17:31:34.216Z,8.00
2022-12-28T17:34:02.964Z,8.20
2022-12-28T17:36:30.136Z,8.09
2022-12-28T17:38:57.560Z,7.88
2022-12-28T17:41:27.554Z,8.15
2022-12-28T17:43:57.195Z,7.91
2022-12-28T17:46:27.952Z,8.18
2022-12-28T17:48:56.828Z,8.05
2022-12-28T17:51:25.515Z,7.94
2022-12-28T17:53:55.255Z,8.06
2022-12-28T17:56:22.274Z,7.89
2022-12-28T17:58:54.752Z,7.58
2022-12-28T18:01:22.197Z,7.95
2022-12-28T18:03:49.341Z,7.94
2022-12-28T18:06:16.312Z,7.90
2022-12-28T18:08:43.316Z,7.74
2022-12-28T18:11:11.403Z,7.86
2022-12-28T18:13:43.009Z,7.87
2022-12-28T18:16:15.434Z,7.82
2022-12-28T18:18:43.247Z,7.71
2022-12-28T18:21:20.983Z,7.82
2022-12-28T18:23:50.632Z,7.78
2022-12-28T18:26:21.135Z,7.75
2022-12-28T18:28:48.041Z,7.78
2022-12-28T18:31:15.400Z,7.81
2022-12-28T18:33:43.103Z,7.81
2022-12-28T18:36:16.999Z,7.78
2022-12-28T18:38:47.613Z,7.73
2022-12-28T18:41:17.721Z,7.79
2022-12-28T18:43:45.861Z,7.64
2022-12-28T18:46:13.359Z,7.73
2022-12-28T18:48:41.726Z,7.72
2022-12-28T18:51:14.618Z,7.66
2022-12-28T18:53:42.134Z,7.62
2022-12-28T18:56:12.039Z,7.58
2022-12-28T18:58:40.731Z,7.65
2022-12-28T19:01:55.469Z,7.60
2022-12-28T19:04:05.796Z,7.44
2022-12-28T19:06:33.519Z,7.36
2022-12-28T19:09:00.964Z,7.46
2022-12-28T19:11:28.578Z,7.39
2022-12-28T19:13:55.587Z,7.49
2022-12-28T19:16:28.787Z,7.39
2022-12-28T19:18:58.486Z,7.26
2022-12-28T19:21:37.512Z,7.42
2022-12-28T19:24:12.236Z,7.39
2022-12-28T19:26:40.527Z,7.13
2022-12-28T19:29:08.152Z,7.21
2022-12-28T19:31:35.070Z,7.30
2022-12-28T19:34:02.201Z,7.21
2022-12-28T19:36:29.501Z,7.28
2022-12-28T19:38:57.664Z,7.26
2022-12-28T19:41:25.458Z,7.01
2022-12-28T19:43:52.644Z,7.12
2022-12-28T19:46:30.953Z,7.27
2022-12-28T19:49:00.172Z,7.17
2022-12-28T19:51:31.385Z,7.17
2022-12-28T19:54:00.094Z,7.10
2022-12-28T19:56:27.615Z,7.16
2022-12-28T19:59:03.086Z,7.20
2022-12-28T20:01:30.963Z,7.14
2022-12-28T20:03:59.397Z,7.23
2022-12-28T20:06:28.947Z,7.08
2022-12-28T20:08:58.577Z,7.15
2022-12-28T20:11:26.703Z,7.19
2022-12-28T20:13:59.716Z,7.23
2022-12-28T20:16:28.848Z,7.23
2022-12-28T20:18:56.233Z,7.10
2022-12-28T20:21:25.491Z,6.77
2022-12-28T20:23:53.559Z,7.07
2022-12-28T20:26:22.216Z,7.01
2022-12-28T20:28:50.857Z,7.15
2022-12-28T20:31:18.232Z,7.14
2022-12-28T20:33:46.363Z,7.10
2022-12-28T20:36:16.048Z,7.08
2022-12-28T20:38:43.234Z,7.02
2022-12-28T20:41:32.964Z,7.00
2022-12-28T20:44:01.550Z,6.99
2022-12-28T20:46:29.353Z,7.04
2022-12-28T20:48:56.657Z,6.96
2022-12-28T20:51:23.669Z,6.80
2022-12-28T20:53:50.763Z,6.92
2022-12-28T20:56:18.284Z,6.81
2022-12-28T20:58:45.375Z,6.88
2022-12-28T21:01:15.239Z,6.78
2022-12-28T21:03:44.318Z,6.77
2022-12-28T21:06:11.973Z,6.63
2022-12-28T21:08:39.431Z,6.62
2022-12-28T21:11:06.545Z,6.58
2022-12-28T21:13:33.546Z,6.52
2022-12-28T21:16:04.453Z,6.42
2022-12-28T21:18:32.010Z,6.20
2022-12-28T21:21:00.252Z,6.32
2022-12-28T21:23:29.363Z,6.05
2022-12-28T21:26:03.153Z,6.24
2022-12-28T21:28:30.449Z,6.22
2022-12-28T21:30:58.123Z,6.01
2022-12-28T21:33:25.155Z,6.07
2022-12-28T21:36:03.521Z,6.00
2022-12-28T21:38:32.152Z,5.76
2022-12-28T21:41:04.791Z,5.96
2022-12-28T21:43:32.161Z,6.01
2022-12-28T21:46:04.802Z,5.91
2022-12-28T21:48:33.445Z,5.87
2022-12-28T21:51:31.582Z,5.97
2022-12-28T21:54:00.653Z,5.90
2022-12-28T21:56:28.795Z,5.83
2022-12-28T21:58:56.907Z,5.82
2022-12-28T22:01:43.723Z,5.82
2022-12-28T22:04:35.095Z,5.68
2022-12-28T22:07:03.029Z,5.79
2022-12-28T22:09:48.778Z,5.68
2022-12-28T22:12:34.252Z,5.69
2022-12-28T22:15:28.023Z,5.73
2022-12-28T22:17:57.797Z,5.57
2022-12-28T22:20:25.984Z,5.69
2022-12-28T22:22:56.521Z,5.72
2022-12-28T22:25:24.318Z,5.66
2022-12-28T22:27:51.539Z,5.67
2022-12-28T22:30:18.746Z,5.58
2022-12-28T22:32:45.834Z,5.74
2022-12-28T22:35:12.869Z,5.63
2022-12-28T22:37:41.019Z,5.77
2022-12-28T22:40:08.854Z,5.72
2022-12-28T22:42:39.596Z,5.31
2022-12-28T22:45:07.165Z,5.72
2022-12-28T22:47:34.077Z,5.75
2022-12-28T22:50:00.944Z,5.65
2022-12-28T22:52:28.033Z,5.81
2022-12-28T22:54:54.935Z,5.86
2022-12-28T22:57:21.917Z,5.77
2022-12-28T22:59:48.730Z,5.78
2022-12-28T23:02:15.715Z,5.90
2022-12-28T23:04:42.875Z,5.98
2022-12-28T23:07:09.800Z,5.92
2022-12-28T23:09:36.781Z,5.91
2022-12-28T23:12:03.993Z,5.91
2022-12-28T23:14:49.610Z,6.01
2022-12-28T23:17:17.289Z,6.07
2022-12-28T23:20:04.824Z,6.10
2022-12-28T23:22:53.529Z,6.12
2022-12-28T23:25:41.892Z,6.07
2022-12-28T23:28:12.209Z,6.02
2022-12-28T23:30:43.674Z,6.03
2022-12-28T23:33:11.305Z,6.17
2022-12-28T23:35:38.354Z,6.08
2022-12-28T23:38:05.266Z,6.19
2022-12-28T23:40:32.222Z,6.11
2022-12-28T23:43:00.346Z,6.11
2022-12-28T23:45:27.180Z,6.20
2022-12-28T23:47:54.194Z,6.30
2022-12-28T23:50:21.321Z,6.02
2022-12-28T23:52:48.301Z,6.22
2022-12-28T23:55:15.513Z,6.29
2022-12-28T23:57:43.401Z,6.40
